sensor_id;sensor_type;location;lat;lon;timestamp;P1;durP1;ratioP1;P2;durP2;ratioP2
7104;SDS011;3594;42.152;24.714;2022-11-20T00:00:07;23.20;;;11.40;;
7104;SDS011;3594;42.152;24.714;2022-11-20T00:02:33;19.67;;;9.65;;
7104;SDS011;3594;42.152;24.714;2022-11-20T00:04:58;22.73;;;10.73;;
7104;SDS011;3594;42.152;24.714;2022-11-20T00:07:24;19.65;;;10.38;;
7104;SDS011;3594;42.152;24.714;2022-11-20T00:09:49;19.52;;;9.25;;
7104;SDS011;3594;42.152;24.714;2022-11-20T00:12:14;25.35;;;11.70;;
7104;SDS011;3594;42.152;24.714;2022-11-20T00:14:40;21.75;;;11.02;;
7104;SDS011;3594;42.152;24.714;2022-11-20T00:17:06;20.20;;;10.45;;
7104;SDS011;3594;42.152;24.714;2022-11-20T00:19:31;24.33;;;10.25;;
7104;SDS011;3594;42.152;24.714;2022-11-20T00:21:57;21.23;;;10.45;;
7104;SDS011;3594;42.152;24.714;2022-11-20T00:24:22;18.25;;;10.05;;
7104;SDS011;3594;42.152;24.714;2022-11-20T00:26:47;19.27;;;9.55;;
7104;SDS011;3594;42.152;24.714;2022-11-20T00:29:13;21.70;;;10.95;;
7104;SDS011;3594;42.152;24.714;2022-11-20T00:31:38;22.23;;;11.43;;
7104;SDS011;3594;42.152;24.714;2022-11-20T00:34:04;18.33;;;10.02;;
7104;SDS011;3594;42.152;24.714;2022-11-20T00:36:31;22.65;;;10.13;;
7104;SDS011;3594;42.152;24.714;2022-11-20T00:38:58;15.82;;;9.48;;
7104;SDS011;3594;42.152;24.714;2022-11-20T00:41:24;21.33;;;10.18;;
7104;SDS011;3594;42.152;24.714;2022-11-20T00:43:54;20.52;;;10.77;;
7104;SDS011;3594;42.152;24.714;2022-11-20T00:46:23;21.02;;;11.05;;
7104;SDS011;3594;42.152;24.714;2022-11-20T00:48:50;21.92;;;11.70;;
7104;SDS011;3594;42.152;24.714;2022-11-20T00:51:17;24.90;;;10.43;;
7104;SDS011;3594;42.152;24.714;2022-11-20T00:53:44;18.67;;;11.27;;
7104;SDS011;3594;42.152;24.714;2022-11-20T00:56:11;17.73;;;10.23;;
7104;SDS011;3594;42.152;24.714;2022-11-20T00:58:40;27.05;;;11.10;;
7104;SDS011;3594;42.152;24.714;2022-11-20T01:01:09;16.85;;;9.68;;
7104;SDS011;3594;42.152;24.714;2022-11-20T01:03:40;24.80;;;9.73;;
7104;SDS011;3594;42.152;24.714;2022-11-20T01:08:36;21.73;;;10.48;;
7104;SDS011;3594;42.152;24.714;2022-11-20T01:11:06;22.58;;;10.00;;
7104;SDS011;3594;42.152;24.714;2022-11-20T01:13:34;22.10;;;9.32;;
7104;SDS011;3594;42.152;24.714;2022-11-20T01:16:12;16.23;;;10.50;;
7104;SDS011;3594;42.152;24.714;2022-11-20T01:18:47;22.83;;;9.75;;
7104;SDS011;3594;42.152;24.714;2022-11-20T01:21:15;25.02;;;11.50;;
7104;SDS011;3594;42.152;24.714;2022-11-20T01:23:42;19.50;;;10.77;;
7104;SDS011;3594;42.152;24.714;2022-11-20T01:26:10;24.38;;;10.95;;
7104;SDS011;3594;42.152;24.714;2022-11-20T01:28:36;24.25;;;10.82;;
7104;SDS011;3594;42.152;24.714;2022-11-20T01:31:10;20.35;;;10.57;;
7104;SDS011;3594;42.152;24.714;2022-11-20T01:33:43;18.52;;;9.70;;
7104;SDS011;3594;42.152;24.714;2022-11-20T01:36:10;26.30;;;10.70;;
7104;SDS011;3594;42.152;24.714;2022-11-20T01:38:36;17.70;;;10.52;;
7104;SDS011;3594;42.152;24.714;2022-11-20T01:41:02;19.25;;;9.93;;
7104;SDS011;3594;42.152;24.714;2022-11-20T01:43:27;21.02;;;10.52;;
7104;SDS011;3594;42.152;24.714;2022-11-20T01:48:32;22.98;;;11.15;;
7104;SDS011;3594;42.152;24.714;2022-11-20T01:51:02;26.42;;;11.75;;
7104;SDS011;3594;42.152;24.714;2022-11-20T01:53:29;19.67;;;10.30;;
7104;SDS011;3594;42.152;24.714;2022-11-20T01:55:59;19.98;;;10.27;;
7104;SDS011;3594;42.152;24.714;2022-11-20T01:58:33;16.92;;;9.23;;
7104;SDS011;3594;42.152;24.714;2022-11-20T02:01:03;19.95;;;9.68;;
7104;SDS011;3594;42.152;24.714;2022-11-20T02:03:29;20.48;;;10.15;;
7104;SDS011;3594;42.152;24.714;2022-11-20T02:08:41;24.05;;;10.25;;
7104;SDS011;3594;42.152;24.714;2022-11-20T02:11:06;19.60;;;9.85;;
7104;SDS011;3594;42.152;24.714;2022-11-20T02:13:33;18.73;;;10.73;;
7104;SDS011;3594;42.152;24.714;2022-11-20T02:16:08;26.10;;;10.40;;
7104;SDS011;3594;42.152;24.714;2022-11-20T02:18:36;18.83;;;9.90;;
7104;SDS011;3594;42.152;24.714;2022-11-20T02:21:07;24.27;;;10.35;;
7104;SDS011;3594;42.152;24.714;2022-11-20T02:23:51;19.98;;;9.77;;
7104;SDS011;3594;42.152;24.714;2022-11-20T02:26:30;20.52;;;9.30;;
7104;SDS011;3594;42.152;24.714;2022-11-20T02:28:58;19.52;;;9.43;;
7104;SDS011;3594;42.152;24.714;2022-11-20T02:31:25;19.10;;;10.13;;
7104;SDS011;3594;42.152;24.714;2022-11-20T02:33:57;15.68;;;9.32;;
7104;SDS011;3594;42.152;24.714;2022-11-20T02:36:23;18.58;;;9.88;;
7104;SDS011;3594;42.152;24.714;2022-11-20T02:38:51;20.33;;;10.00;;
7104;SDS011;3594;42.152;24.714;2022-11-20T02:41:16;20.00;;;10.23;;
7104;SDS011;3594;42.152;24.714;2022-11-20T02:43:42;15.55;;;8.20;;
7104;SDS011;3594;42.152;24.714;2022-11-20T02:46:07;16.48;;;8.48;;
7104;SDS011;3594;42.152;24.714;2022-11-20T02:48:33;18.20;;;9.82;;
7104;SDS011;3594;42.152;24.714;2022-11-20T02:50:58;16.60;;;9.35;;
7104;SDS011;3594;42.152;24.714;2022-11-20T02:53:24;15.10;;;7.57;;
7104;SDS011;3594;42.152;24.714;2022-11-20T02:55:49;17.83;;;7.47;;
7104;SDS011;3594;42.152;24.714;2022-11-20T02:58:14;12.52;;;6.53;;
7104;SDS011;3594;42.152;24.714;2022-11-20T03:00:40;11.93;;;7.00;;
7104;SDS011;3594;42.152;24.714;2022-11-20T03:03:05;12.80;;;7.28;;
7104;SDS011;3594;42.152;24.714;2022-11-20T03:05:31;13.57;;;7.18;;
7104;SDS011;3594;42.152;24.714;2022-11-20T03:07:56;13.15;;;7.43;;
7104;SDS011;3594;42.152;24.714;2022-11-20T03:10:21;14.25;;;6.68;;
7104;SDS011;3594;42.152;24.714;2022-11-20T03:12:47;13.60;;;6.05;;
7104;SDS011;3594;42.152;24.714;2022-11-20T03:15:12;12.70;;;7.53;;
7104;SDS011;3594;42.152;24.714;2022-11-20T03:17:38;13.55;;;7.78;;
7104;SDS011;3594;42.152;24.714;2022-11-20T03:20:04;16.92;;;8.35;;
7104;SDS011;3594;42.152;24.714;2022-11-20T03:22:29;15.25;;;8.10;;
7104;SDS011;3594;42.152;24.714;2022-11-20T03:24:55;15.68;;;8.43;;
7104;SDS011;3594;42.152;24.714;2022-11-20T03:27:20;15.05;;;7.85;;
7104;SDS011;3594;42.152;24.714;2022-11-20T03:29:46;17.77;;;7.85;;
7104;SDS011;3594;42.152;24.714;2022-11-20T03:32:11;11.38;;;6.65;;
7104;SDS011;3594;42.152;24.714;2022-11-20T03:34:36;18.30;;;7.90;;
7104;SDS011;3594;42.152;24.714;2022-11-20T03:37:02;13.02;;;7.18;;
7104;SDS011;3594;42.152;24.714;2022-11-20T03:39:27;14.95;;;7.15;;
7104;SDS011;3594;42.152;24.714;2022-11-20T03:41:53;12.75;;;7.15;;
7104;SDS011;3594;42.152;24.714;2022-11-20T03:44:20;12.38;;;6.55;;
7104;SDS011;3594;42.152;24.714;2022-11-20T03:46:46;14.52;;;7.15;;
7104;SDS011;3594;42.152;24.714;2022-11-20T03:49:12;19.83;;;6.82;;
7104;SDS011;3594;42.152;24.714;2022-11-20T03:51:37;12.85;;;7.63;;
7104;SDS011;3594;42.152;24.714;2022-11-20T03:54:04;13.18;;;7.60;;
7104;SDS011;3594;42.152;24.714;2022-11-20T03:56:33;13.15;;;6.90;;
7104;SDS011;3594;42.152;24.714;2022-11-20T03:59:00;12.60;;;5.43;;
7104;SDS011;3594;42.152;24.714;2022-11-20T04:01:27;13.98;;;6.72;;
7104;SDS011;3594;42.152;24.714;2022-11-20T04:03:55;15.48;;;6.45;;
7104;SDS011;3594;42.152;24.714;2022-11-20T04:06:23;14.25;;;6.90;;
7104;SDS011;3594;42.152;24.714;2022-11-20T04:08:50;16.63;;;8.05;;
7104;SDS011;3594;42.152;24.714;2022-11-20T04:11:17;14.20;;;6.53;;
7104;SDS011;3594;42.152;24.714;2022-11-20T04:13:52;12.40;;;7.15;;
7104;SDS011;3594;42.152;24.714;2022-11-20T04:16:19;13.23;;;6.43;;
7104;SDS011;3594;42.152;24.714;2022-11-20T04:18:45;8.65;;;5.68;;
7104;SDS011;3594;42.152;24.714;2022-11-20T04:21:11;6.40;;;3.83;;
7104;SDS011;3594;42.152;24.714;2022-11-20T04:23:37;6.50;;;4.07;;
7104;SDS011;3594;42.152;24.714;2022-11-20T04:26:04;13.30;;;5.28;;
7104;SDS011;3594;42.152;24.714;2022-11-20T04:28:31;10.20;;;5.40;;
7104;SDS011;3594;42.152;24.714;2022-11-20T04:31:07;10.35;;;5.40;;
7104;SDS011;3594;42.152;24.714;2022-11-20T04:33:34;9.50;;;4.30;;
7104;SDS011;3594;42.152;24.714;2022-11-20T04:36:01;7.28;;;4.50;;
7104;SDS011;3594;42.152;24.714;2022-11-20T04:38:28;12.38;;;4.43;;
7104;SDS011;3594;42.152;24.714;2022-11-20T04:40:57;5.75;;;3.95;;
7104;SDS011;3594;42.152;24.714;2022-11-20T04:43:28;8.52;;;4.30;;
7104;SDS011;3594;42.152;24.714;2022-11-20T04:45:54;8.27;;;5.22;;
7104;SDS011;3594;42.152;24.714;2022-11-20T04:48:20;10.60;;;4.85;;
7104;SDS011;3594;42.152;24.714;2022-11-20T04:50:45;9.02;;;5.38;;
7104;SDS011;3594;42.152;24.714;2022-11-20T04:53:11;8.18;;;3.75;;
7104;SDS011;3594;42.152;24.714;2022-11-20T04:55:36;7.22;;;4.55;;
7104;SDS011;3594;42.152;24.714;2022-11-20T04:58:02;5.22;;;3.58;;
7104;SDS011;3594;42.152;24.714;2022-11-20T05:00:27;6.45;;;4.07;;
7104;SDS011;3594;42.152;24.714;2022-11-20T05:02:53;6.15;;;4.18;;
7104;SDS011;3594;42.152;24.714;2022-11-20T05:05:18;6.90;;;3.85;;
7104;SDS011;3594;42.152;24.714;2022-11-20T05:07:43;6.13;;;3.17;;
7104;SDS011;3594;42.152;24.714;2022-11-20T05:10:09;7.45;;;3.40;;
7104;SDS011;3594;42.152;24.714;2022-11-20T05:12:34;8.52;;;3.40;;
7104;SDS011;3594;42.152;24.714;2022-11-20T05:14:59;10.93;;;4.53;;
7104;SDS011;3594;42.152;24.714;2022-11-20T05:17:25;5.40;;;3.20;;
7104;SDS011;3594;42.152;24.714;2022-11-20T05:19:50;2.88;;;2.42;;
7104;SDS011;3594;42.152;24.714;2022-11-20T05:22:15;4.65;;;2.97;;
7104;SDS011;3594;42.152;24.714;2022-11-20T05:24:41;8.20;;;3.22;;
7104;SDS011;3594;42.152;24.714;2022-11-20T05:27:06;7.18;;;3.00;;
7104;SDS011;3594;42.152;24.714;2022-11-20T05:29:32;6.28;;;3.63;;
7104;SDS011;3594;42.152;24.714;2022-11-20T05:31:57;6.95;;;3.78;;
7104;SDS011;3594;42.152;24.714;2022-11-20T05:34:22;6.40;;;4.20;;
7104;SDS011;3594;42.152;24.714;2022-11-20T05:36:48;6.22;;;3.63;;
7104;SDS011;3594;42.152;24.714;2022-11-20T05:39:13;5.50;;;3.85;;
7104;SDS011;3594;42.152;24.714;2022-11-20T05:41:38;5.85;;;3.55;;
7104;SDS011;3594;42.152;24.714;2022-11-20T05:44:04;7.38;;;3.88;;
7104;SDS011;3594;42.152;24.714;2022-11-20T05:46:29;5.57;;;3.75;;
7104;SDS011;3594;42.152;24.714;2022-11-20T05:48:55;6.10;;;3.75;;
7104;SDS011;3594;42.152;24.714;2022-11-20T05:51:21;6.47;;;3.65;;
7104;SDS011;3594;42.152;24.714;2022-11-20T05:53:47;6.75;;;3.75;;
7104;SDS011;3594;42.152;24.714;2022-11-20T05:56:13;6.78;;;3.67;;
7104;SDS011;3594;42.152;24.714;2022-11-20T05:58:46;5.57;;;3.97;;
7104;SDS011;3594;42.152;24.714;2022-11-20T06:01:13;6.75;;;4.00;;
7104;SDS011;3594;42.152;24.714;2022-11-20T06:03:42;6.45;;;4.10;;
7104;SDS011;3594;42.152;24.714;2022-11-20T06:06:10;7.85;;;4.05;;
7104;SDS011;3594;42.152;24.714;2022-11-20T06:08:36;5.53;;;4.00;;
7104;SDS011;3594;42.152;24.714;2022-11-20T06:11:03;5.55;;;3.72;;
7104;SDS011;3594;42.152;24.714;2022-11-20T06:13:30;10.38;;;4.70;;
7104;SDS011;3594;42.152;24.714;2022-11-20T06:15:55;6.38;;;4.07;;
7104;SDS011;3594;42.152;24.714;2022-11-20T06:18:20;6.53;;;4.07;;
7104;SDS011;3594;42.152;24.714;2022-11-20T06:20:46;5.20;;;4.10;;
7104;SDS011;3594;42.152;24.714;2022-11-20T06:23:11;6.38;;;4.32;;
7104;SDS011;3594;42.152;24.714;2022-11-20T06:25:41;6.57;;;3.90;;
7104;SDS011;3594;42.152;24.714;2022-11-20T06:28:07;10.38;;;3.80;;
7104;SDS011;3594;42.152;24.714;2022-11-20T06:30:34;8.90;;;4.25;;
7104;SDS011;3594;42.152;24.714;2022-11-20T06:33:00;6.50;;;4.05;;
7104;SDS011;3594;42.152;24.714;2022-11-20T06:35:26;6.57;;;4.45;;
7104;SDS011;3594;42.152;24.714;2022-11-20T06:37:52;7.35;;;4.38;;
7104;SDS011;3594;42.152;24.714;2022-11-20T06:40:17;6.43;;;3.95;;
7104;SDS011;3594;42.152;24.714;2022-11-20T06:42:42;9.85;;;3.70;;
7104;SDS011;3594;42.152;24.714;2022-11-20T06:45:08;9.48;;;4.47;;
7104;SDS011;3594;42.152;24.714;2022-11-20T06:47:34;7.75;;;4.57;;
7104;SDS011;3594;42.152;24.714;2022-11-20T06:49:59;6.80;;;4.20;;
7104;SDS011;3594;42.152;24.714;2022-11-20T06:52:25;11.07;;;4.32;;
7104;SDS011;3594;42.152;24.714;2022-11-20T06:54:50;6.55;;;4.18;;
7104;SDS011;3594;42.152;24.714;2022-11-20T06:57:15;7.97;;;4.82;;
7104;SDS011;3594;42.152;24.714;2022-11-20T06:59:41;7.15;;;3.85;;
7104;SDS011;3594;42.152;24.714;2022-11-20T07:02:09;7.72;;;4.30;;
7104;SDS011;3594;42.152;24.714;2022-11-20T07:04:35;6.00;;;3.90;;
7104;SDS011;3594;42.152;24.714;2022-11-20T07:07:01;7.47;;;3.85;;
7104;SDS011;3594;42.152;24.714;2022-11-20T07:09:26;8.25;;;4.40;;
7104;SDS011;3594;42.152;24.714;2022-11-20T07:11:51;8.10;;;3.20;;
7104;SDS011;3594;42.152;24.714;2022-11-20T07:14:17;5.18;;;3.30;;
7104;SDS011;3594;42.152;24.714;2022-11-20T07:16:42;11.60;;;4.65;;
7104;SDS011;3594;42.152;24.714;2022-11-20T07:19:08;6.80;;;4.50;;
7104;SDS011;3594;42.152;24.714;2022-11-20T07:21:33;7.20;;;3.97;;
7104;SDS011;3594;42.152;24.714;2022-11-20T07:23:58;5.47;;;3.45;;
7104;SDS011;3594;42.152;24.714;2022-11-20T07:26:24;4.68;;;3.20;;
7104;SDS011;3594;42.152;24.714;2022-11-20T07:28:49;7.63;;;3.42;;
7104;SDS011;3594;42.152;24.714;2022-11-20T07:31:15;7.03;;;3.85;;
7104;SDS011;3594;42.152;24.714;2022-11-20T07:33:40;5.13;;;3.38;;
7104;SDS011;3594;42.152;24.714;2022-11-20T07:36:06;7.55;;;3.50;;
7104;SDS011;3594;42.152;24.714;2022-11-20T07:38:31;7.60;;;2.90;;
7104;SDS011;3594;42.152;24.714;2022-11-20T07:40:57;7.70;;;3.28;;
7104;SDS011;3594;42.152;24.714;2022-11-20T07:43:23;7.07;;;3.28;;
7104;SDS011;3594;42.152;24.714;2022-11-20T07:45:50;4.85;;;3.03;;
7104;SDS011;3594;42.152;24.714;2022-11-20T07:48:15;8.32;;;3.40;;
7104;SDS011;3594;42.152;24.714;2022-11-20T07:50:41;5.93;;;3.58;;
7104;SDS011;3594;42.152;24.714;2022-11-20T07:53:06;8.30;;;3.50;;
7104;SDS011;3594;42.152;24.714;2022-11-20T07:55:32;4.57;;;3.22;;
7104;SDS011;3594;42.152;24.714;2022-11-20T07:57:58;5.93;;;3.17;;
7104;SDS011;3594;42.152;24.714;2022-11-20T08:00:24;10.27;;;3.67;;
7104;SDS011;3594;42.152;24.714;2022-11-20T08:02:50;5.95;;;3.58;;
7104;SDS011;3594;42.152;24.714;2022-11-20T08:05:16;6.63;;;3.78;;
7104;SDS011;3594;42.152;24.714;2022-11-20T08:07:42;5.60;;;3.35;;
7104;SDS011;3594;42.152;24.714;2022-11-20T08:10:09;9.18;;;3.35;;
7104;SDS011;3594;42.152;24.714;2022-11-20T08:12:36;6.15;;;3.28;;
7104;SDS011;3594;42.152;24.714;2022-11-20T08:15:26;9.25;;;4.00;;
7104;SDS011;3594;42.152;24.714;2022-11-20T08:17:52;6.88;;;3.35;;
7104;SDS011;3594;42.152;24.714;2022-11-20T08:20:17;5.35;;;3.30;;
7104;SDS011;3594;42.152;24.714;2022-11-20T08:22:42;5.80;;;3.70;;
7104;SDS011;3594;42.152;24.714;2022-11-20T08:25:08;9.63;;;4.18;;
7104;SDS011;3594;42.152;24.714;2022-11-20T08:27:34;7.25;;;3.60;;
7104;SDS011;3594;42.152;24.714;2022-11-20T08:29:59;6.88;;;3.45;;
7104;SDS011;3594;42.152;24.714;2022-11-20T08:32:25;9.02;;;4.28;;
7104;SDS011;3594;42.152;24.714;2022-11-20T08:34:50;8.65;;;3.88;;
7104;SDS011;3594;42.152;24.714;2022-11-20T08:37:15;7.45;;;4.03;;
7104;SDS011;3594;42.152;24.714;2022-11-20T08:39:41;7.28;;;4.10;;
7104;SDS011;3594;42.152;24.714;2022-11-20T08:42:07;6.95;;;4.28;;
7104;SDS011;3594;42.152;24.714;2022-11-20T08:44:33;8.63;;;5.10;;
7104;SDS011;3594;42.152;24.714;2022-11-20T08:46:58;8.20;;;4.25;;
7104;SDS011;3594;42.152;24.714;2022-11-20T08:49:25;7.05;;;4.10;;
7104;SDS011;3594;42.152;24.714;2022-11-20T08:51:50;5.72;;;3.63;;
7104;SDS011;3594;42.152;24.714;2022-11-20T08:54:19;10.05;;;4.45;;
7104;SDS011;3594;42.152;24.714;2022-11-20T08:56:47;11.60;;;5.97;;
7104;SDS011;3594;42.152;24.714;2022-11-20T08:59:12;11.55;;;6.03;;
7104;SDS011;3594;42.152;24.714;2022-11-20T09:01:38;13.70;;;7.10;;
7104;SDS011;3594;42.152;24.714;2022-11-20T09:04:04;21.40;;;10.82;;
7104;SDS011;3594;42.152;24.714;2022-11-20T09:06:29;18.73;;;9.55;;
7104;SDS011;3594;42.152;24.714;2022-11-20T09:08:55;10.20;;;6.13;;
7104;SDS011;3594;42.152;24.714;2022-11-20T09:11:21;5.07;;;3.58;;
7104;SDS011;3594;42.152;24.714;2022-11-20T09:13:47;4.55;;;3.13;;
7104;SDS011;3594;42.152;24.714;2022-11-20T09:16:13;6.18;;;2.78;;
7104;SDS011;3594;42.152;24.714;2022-11-20T09:18:38;5.70;;;3.03;;
7104;SDS011;3594;42.152;24.714;2022-11-20T09:21:05;4.78;;;2.78;;
7104;SDS011;3594;42.152;24.714;2022-11-20T09:23:35;4.90;;;2.85;;
7104;SDS011;3594;42.152;24.714;2022-11-20T09:26:02;3.70;;;2.60;;
7104;SDS011;3594;42.152;24.714;2022-11-20T09:28:31;4.75;;;2.55;;
7104;SDS011;3594;42.152;24.714;2022-11-20T09:30:57;4.00;;;2.28;;
7104;SDS011;3594;42.152;24.714;2022-11-20T09:33:23;3.90;;;2.38;;
7104;SDS011;3594;42.152;24.714;2022-11-20T09:35:48;3.90;;;2.42;;
7104;SDS011;3594;42.152;24.714;2022-11-20T09:38:13;3.72;;;2.63;;
7104;SDS011;3594;42.152;24.714;2022-11-20T09:46:17;3.58;;;2.40;;
7104;SDS011;3594;42.152;24.714;2022-11-20T09:48:53;4.03;;;2.38;;
7104;SDS011;3594;42.152;24.714;2022-11-20T09:51:40;2.25;;;2.05;;
7104;SDS011;3594;42.152;24.714;2022-11-20T09:54:18;3.35;;;2.10;;
7104;SDS011;3594;42.152;24.714;2022-11-20T09:56:50;3.65;;;2.30;;
7104;SDS011;3594;42.152;24.714;2022-11-20T10:01:47;3.40;;;2.35;;
7104;SDS011;3594;42.152;24.714;2022-11-20T10:04:15;3.78;;;2.15;;
7104;SDS011;3594;42.152;24.714;2022-11-20T10:09:37;4.32;;;2.83;;
7104;SDS011;3594;42.152;24.714;2022-11-20T10:14:45;5.45;;;2.72;;
7104;SDS011;3594;42.152;24.714;2022-11-20T10:17:19;3.92;;;2.60;;
7104;SDS011;3594;42.152;24.714;2022-11-20T10:22:53;4.05;;;2.58;;
7104;SDS011;3594;42.152;24.714;2022-11-20T10:25:38;5.38;;;3.03;;
7104;SDS011;3594;42.152;24.714;2022-11-20T10:31:31;6.07;;;3.15;;
7104;SDS011;3594;42.152;24.714;2022-11-20T10:34:01;5.85;;;2.95;;
7104;SDS011;3594;42.152;24.714;2022-11-20T10:36:36;5.53;;;2.85;;
7104;SDS011;3594;42.152;24.714;2022-11-20T10:42:03;3.92;;;2.42;;
7104;SDS011;3594;42.152;24.714;2022-11-20T10:44:36;4.00;;;2.97;;
7104;SDS011;3594;42.152;24.714;2022-11-20T10:47:22;5.50;;;2.80;;
7104;SDS011;3594;42.152;24.714;2022-11-20T10:49:52;5.80;;;3.13;;
7104;SDS011;3594;42.152;24.714;2022-11-20T10:52:26;5.07;;;3.03;;
7104;SDS011;3594;42.152;24.714;2022-11-20T10:55:10;4.30;;;2.67;;
7104;SDS011;3594;42.152;24.714;2022-11-20T11:00:46;5.25;;;3.05;;
7104;SDS011;3594;42.152;24.714;2022-11-20T11:03:22;4.88;;;2.78;;
7104;SDS011;3594;42.152;24.714;2022-11-20T11:05:54;5.32;;;3.08;;
7104;SDS011;3594;42.152;24.714;2022-11-20T11:08:28;5.53;;;3.50;;
7104;SDS011;3594;42.152;24.714;2022-11-20T11:11:00;6.50;;;3.08;;
7104;SDS011;3594;42.152;24.714;2022-11-20T11:13:38;6.85;;;3.47;;
7104;SDS011;3594;42.152;24.714;2022-11-20T11:16:03;5.43;;;3.22;;
7104;SDS011;3594;42.152;24.714;2022-11-20T11:18:32;7.25;;;3.10;;
7104;SDS011;3594;42.152;24.714;2022-11-20T11:21:00;5.95;;;3.03;;
7104;SDS011;3594;42.152;24.714;2022-11-20T11:23:38;4.05;;;3.05;;
7104;SDS011;3594;42.152;24.714;2022-11-20T11:26:06;7.22;;;3.72;;
7104;SDS011;3594;42.152;24.714;2022-11-20T11:28:52;9.93;;;3.78;;
7104;SDS011;3594;42.152;24.714;2022-11-20T11:31:22;6.35;;;3.42;;
7104;SDS011;3594;42.152;24.714;2022-11-20T11:33:52;8.65;;;3.60;;
7104;SDS011;3594;42.152;24.714;2022-11-20T11:36:28;6.95;;;3.05;;
7104;SDS011;3594;42.152;24.714;2022-11-20T11:38:53;4.82;;;3.10;;
7104;SDS011;3594;42.152;24.714;2022-11-20T11:41:20;5.43;;;3.03;;
7104;SDS011;3594;42.152;24.714;2022-11-20T11:43:55;3.95;;;2.60;;
7104;SDS011;3594;42.152;24.714;2022-11-20T11:46:44;4.90;;;2.67;;
7104;SDS011;3594;42.152;24.714;2022-11-20T11:49:18;4.28;;;2.25;;
7104;SDS011;3594;42.152;24.714;2022-11-20T11:54:55;6.03;;;2.80;;
7104;SDS011;3594;42.152;24.714;2022-11-20T12:00:20;9.07;;;2.47;;
7104;SDS011;3594;42.152;24.714;2022-11-20T12:02:49;6.60;;;2.50;;
7104;SDS011;3594;42.152;24.714;2022-11-20T12:05:43;9.23;;;2.60;;
7104;SDS011;3594;42.152;24.714;2022-11-20T12:08:24;4.55;;;1.75;;
7104;SDS011;3594;42.152;24.714;2022-11-20T12:16:00;2.17;;;1.73;;
7104;SDS011;3594;42.152;24.714;2022-11-20T12:18:26;3.33;;;1.98;;
7104;SDS011;3594;42.152;24.714;2022-11-20T12:37:29;4.60;;;2.55;;
7104;SDS011;3594;42.152;24.714;2022-11-20T12:40:12;6.60;;;2.97;;
7104;SDS011;3594;42.152;24.714;2022-11-20T12:42:49;9.43;;;2.67;;
7104;SDS011;3594;42.152;24.714;2022-11-20T12:48:33;5.88;;;2.35;;
7104;SDS011;3594;42.152;24.714;2022-11-20T12:51:15;3.33;;;1.92;;
7104;SDS011;3594;42.152;24.714;2022-11-20T13:01:55;7.18;;;2.28;;
7104;SDS011;3594;42.152;24.714;2022-11-20T13:07:08;2.83;;;1.80;;
7104;SDS011;3594;42.152;24.714;2022-11-20T13:09:42;3.45;;;1.55;;
7104;SDS011;3594;42.152;24.714;2022-11-20T13:12:12;4.40;;;1.67;;
7104;SDS011;3594;42.152;24.714;2022-11-20T13:15:08;2.45;;;1.50;;
7104;SDS011;3594;42.152;24.714;2022-11-20T13:17:39;3.20;;;1.70;;
7104;SDS011;3594;42.152;24.714;2022-11-20T13:20:14;2.47;;;1.50;;
7104;SDS011;3594;42.152;24.714;2022-11-20T13:30:34;2.83;;;1.25;;
7104;SDS011;3594;42.152;24.714;2022-11-20T13:38:08;2.08;;;1.52;;
7104;SDS011;3594;42.152;24.714;2022-11-20T13:40:39;2.55;;;1.65;;
7104;SDS011;3594;42.152;24.714;2022-11-20T13:43:18;3.40;;;1.75;;
7104;SDS011;3594;42.152;24.714;2022-11-20T13:45:54;5.50;;;1.83;;
7104;SDS011;3594;42.152;24.714;2022-11-20T13:48:24;1.60;;;1.10;;
7104;SDS011;3594;42.152;24.714;2022-11-20T14:01:56;2.35;;;1.00;;
7104;SDS011;3594;42.152;24.714;2022-11-20T14:04:26;1.50;;;1.33;;
7104;SDS011;3594;42.152;24.714;2022-11-20T14:06:55;0.90;;;0.90;;
7104;SDS011;3594;42.152;24.714;2022-11-20T14:09:48;1.13;;;0.80;;
7104;SDS011;3594;42.152;24.714;2022-11-20T14:12:21;0.95;;;0.93;;
7104;SDS011;3594;42.152;24.714;2022-11-20T14:14:49;0.80;;;0.80;;
7104;SDS011;3594;42.152;24.714;2022-11-20T14:17:24;1.00;;;0.90;;
7104;SDS011;3594;42.152;24.714;2022-11-20T14:19:59;2.50;;;1.05;;
7104;SDS011;3594;42.152;24.714;2022-11-20T14:22:30;0.85;;;0.85;;
7104;SDS011;3594;42.152;24.714;2022-11-20T14:27:32;0.90;;;0.90;;
7104;SDS011;3594;42.152;24.714;2022-11-20T14:30:00;1.17;;;0.95;;
7104;SDS011;3594;42.152;24.714;2022-11-20T14:32:26;0.90;;;0.90;;
7104;SDS011;3594;42.152;24.714;2022-11-20T14:34:55;1.00;;;0.90;;
7104;SDS011;3594;42.152;24.714;2022-11-20T14:37:27;1.67;;;1.30;;
7104;SDS011;3594;42.152;24.714;2022-11-20T14:39:58;1.92;;;1.35;;
7104;SDS011;3594;42.152;24.714;2022-11-20T14:42:24;1.85;;;1.40;;
7104;SDS011;3594;42.152;24.714;2022-11-20T14:44:52;2.70;;;1.23;;
7104;SDS011;3594;42.152;24.714;2022-11-20T14:47:25;2.10;;;1.00;;
7104;SDS011;3594;42.152;24.714;2022-11-20T14:49:52;1.85;;;1.13;;
7104;SDS011;3594;42.152;24.714;2022-11-20T14:52:21;2.78;;;0.98;;
7104;SDS011;3594;42.152;24.714;2022-11-20T14:54:52;0.80;;;0.80;;
7104;SDS011;3594;42.152;24.714;2022-11-20T14:59:49;0.70;;;0.70;;
7104;SDS011;3594;42.152;24.714;2022-11-20T15:02:14;1.70;;;1.30;;
7104;SDS011;3594;42.152;24.714;2022-11-20T15:07:29;1.20;;;1.10;;
7104;SDS011;3594;42.152;24.714;2022-11-20T15:10:03;2.08;;;1.00;;
7104;SDS011;3594;42.152;24.714;2022-11-20T15:12:34;1.48;;;0.93;;
7104;SDS011;3594;42.152;24.714;2022-11-20T15:15:04;1.80;;;0.95;;
7104;SDS011;3594;42.152;24.714;2022-11-20T15:17:30;1.42;;;1.20;;
7104;SDS011;3594;42.152;24.714;2022-11-20T15:19:57;2.33;;;1.30;;
7104;SDS011;3594;42.152;24.714;2022-11-20T15:22:36;1.25;;;1.10;;
7104;SDS011;3594;42.152;24.714;2022-11-20T15:25:01;1.25;;;1.17;;
7104;SDS011;3594;42.152;24.714;2022-11-20T15:27:30;1.30;;;1.20;;
7104;SDS011;3594;42.152;24.714;2022-11-20T15:29:55;2.63;;;1.60;;
7104;SDS011;3594;42.152;24.714;2022-11-20T15:32:20;1.92;;;1.73;;
7104;SDS011;3594;42.152;24.714;2022-11-20T15:34:46;3.90;;;1.48;;
7104;SDS011;3594;42.152;24.714;2022-11-20T15:37:11;1.60;;;1.02;;
7104;SDS011;3594;42.152;24.714;2022-11-20T15:39:37;1.65;;;1.40;;
7104;SDS011;3594;42.152;24.714;2022-11-20T15:42:02;1.23;;;1.10;;
7104;SDS011;3594;42.152;24.714;2022-11-20T15:44:28;2.08;;;1.58;;
7104;SDS011;3594;42.152;24.714;2022-11-20T15:46:53;14.43;;;3.60;;
7104;SDS011;3594;42.152;24.714;2022-11-20T15:49:18;3.97;;;2.35;;
7104;SDS011;3594;42.152;24.714;2022-11-20T15:51:46;7.35;;;3.13;;
7104;SDS011;3594;42.152;24.714;2022-11-20T15:54:17;10.80;;;3.95;;
7104;SDS011;3594;42.152;24.714;2022-11-20T15:56:48;5.78;;;2.95;;
7104;SDS011;3594;42.152;24.714;2022-11-20T15:59:14;3.92;;;2.00;;
7104;SDS011;3594;42.152;24.714;2022-11-20T16:01:41;3.40;;;2.15;;
7104;SDS011;3594;42.152;24.714;2022-11-20T16:04:11;2.22;;;1.90;;
7104;SDS011;3594;42.152;24.714;2022-11-20T16:06:37;5.22;;;2.58;;
7104;SDS011;3594;42.152;24.714;2022-11-20T16:09:03;3.92;;;2.55;;
7104;SDS011;3594;42.152;24.714;2022-11-20T16:11:29;9.63;;;3.25;;
7104;SDS011;3594;42.152;24.714;2022-11-20T16:13:54;5.72;;;3.40;;
7104;SDS011;3594;42.152;24.714;2022-11-20T16:16:38;6.72;;;3.92;;
7104;SDS011;3594;42.152;24.714;2022-11-20T16:19:05;9.07;;;4.55;;
7104;SDS011;3594;42.152;24.714;2022-11-20T16:21:31;7.25;;;3.97;;
7104;SDS011;3594;42.152;24.714;2022-11-20T16:24:00;4.95;;;3.22;;
7104;SDS011;3594;42.152;24.714;2022-11-20T16:26:27;5.25;;;3.08;;
7104;SDS011;3594;42.152;24.714;2022-11-20T16:28:53;5.03;;;2.78;;
7104;SDS011;3594;42.152;24.714;2022-11-20T16:31:20;8.75;;;4.18;;
7104;SDS011;3594;42.152;24.714;2022-11-20T16:33:53;11.02;;;5.70;;
7104;SDS011;3594;42.152;24.714;2022-11-20T16:36:23;7.18;;;3.40;;
7104;SDS011;3594;42.152;24.714;2022-11-20T16:38:53;5.35;;;3.13;;
7104;SDS011;3594;42.152;24.714;2022-11-20T16:41:20;6.28;;;3.00;;
7104;SDS011;3594;42.152;24.714;2022-11-20T16:43:50;5.63;;;2.92;;
7104;SDS011;3594;42.152;24.714;2022-11-20T16:46:20;5.82;;;3.35;;
7104;SDS011;3594;42.152;24.714;2022-11-20T16:48:57;2.67;;;2.13;;